Time;durP1;ratioP1;P1;durP2;ratioP2;P2;SDS_P1;SDS_P2;PMS_P1;PMS_P2;Temp;Humidity;BMP_temperature;BMP_pressure;BME280_temperature;BME280_humidity;BME280_pressure;Samples;Min_cycle;Max_cycle;Signal;HPM_P1;HPM_P2
2023/10/03 00:00:56;;;;;;;9.93;5.35;;;21.10;77.90;;;;;;6278821;22;20027;-68
2023/10/03 00:03:21;;;;;;;11.48;5.47;;;21.10;77.90;;;;;;6279917;22;20439;-68
2023/10/03 00:05:51;;;;;;;11.27;5.53;;;21.10;77.90;;;;;;6280363;22;20026;-68
2023/10/03 00:08:17;;;;;;;10.32;5.53;;;21.10;77.90;;;;;;6278921;22;20015;-68
2023/10/03 00:10:42;;;;;;;11.00;5.63;;;21.10;77.90;;;;;;6279376;22;20072;-68
2023/10/03 00:13:08;;;;;;;11.65;5.38;;;21.10;78.50;;;;;;6279064;22;20020;-68
2023/10/03 00:15:34;;;;;;;9.60;5.28;;;21.10;77.90;;;;;;6278620;22;20022;-68
2023/10/03 00:18:00;;;;;;;10.32;4.32;;;21.10;77.90;;;;;;6279977;22;20011;-69
2023/10/03 00:20:25;;;;;;;10.18;5.18;;;21.10;77.90;;;;;;6306705;22;20038;-68
2023/10/03 00:22:51;;;;;;;10.85;5.25;;;21.10;77.90;;;;;;6279295;22;20454;-68
2023/10/03 00:25:23;;;;;;;9.82;5.30;;;21.10;77.90;;;;;;6279377;22;20011;-68
2023/10/03 00:27:50;;;;;;;10.93;5.57;;;21.10;77.80;;;;;;6280144;22;20019;-68
2023/10/03 00:30:16;;;;;;;11.73;5.90;;;21.10;77.80;;;;;;6278706;22;20443;-68
2023/10/03 00:32:42;;;;;;;11.30;5.63;;;21.10;77.80;;;;;;6307291;22;20102;-68
2023/10/03 00:35:08;;;;;;;8.88;5.10;;;21.10;77.90;;;;;;6279854;22;20046;-68
2023/10/03 00:37:35;;;;;;;10.30;4.97;;;21.10;77.80;;;;;;6278655;22;20500;-68
2023/10/03 00:40:16;;;;;;;9.60;5.40;;;21.10;77.80;;;;;;6280112;22;20016;-68
2023/10/03 00:42:43;;;;;;;10.45;5.80;;;21.00;77.70;;;;;;6279505;22;20038;-68
2023/10/03 00:45:10;;;;;;;10.73;5.50;;;21.00;77.70;;;;;;6307226;22;20069;-68
2023/10/03 00:47:35;;;;;;;10.95;5.45;;;21.00;77.70;;;;;;6307792;22;20498;-68
2023/10/03 00:50:03;;;;;;;9.88;5.03;;;21.00;77.70;;;;;;6279172;22;20054;-68
2023/10/03 00:52:30;;;;;;;11.70;5.28;;;21.00;77.70;;;;;;6279573;22;20094;-68
2023/10/03 00:54:58;;;;;;;9.13;4.93;;;21.00;77.70;;;;;;6229099;22;20074;-68
2023/10/03 00:57:24;;;;;;;10.00;4.90;;;21.00;77.70;;;;;;6228794;22;20019;-68
2023/10/03 00:59:50;;;;;;;9.88;5.20;;;21.00;77.70;;;;;;6279754;22;20015;-67
2023/10/03 01:02:16;;;;;;;9.85;5.25;;;21.00;77.70;;;;;;6279652;22;20027;-68
2023/10/03 01:04:41;;;;;;;10.88;5.03;;;21.00;77.70;;;;;;6279100;22;20007;-68
2023/10/03 01:07:07;;;;;;;11.13;5.05;;;21.00;77.70;;;;;;6279709;22;20382;-68
2023/10/03 01:09:33;;;;;;;11.75;5.57;;;21.00;77.60;;;;;;6279514;22;20029;-68
2023/10/03 01:11:59;;;;;;;10.15;5.20;;;21.00;77.60;;;;;;6279141;22;20015;-68
2023/10/03 01:14:26;;;;;;;11.63;5.53;;;21.00;77.60;;;;;;6279438;22;20513;-68
2023/10/03 01:16:52;;;;;;;10.40;5.45;;;21.00;77.60;;;;;;6279867;22;20023;-68
2023/10/03 01:19:25;;;;;;;12.10;6.05;;;21.00;77.60;;;;;;6278372;22;20053;-68
2023/10/03 01:21:51;;;;;;;9.70;5.68;;;21.00;77.60;;;;;;6279663;22;20098;-68
2023/10/03 01:24:25;;;;;;;10.05;5.07;;;21.00;77.60;;;;;;6279439;22;20022;-68
2023/10/03 01:26:54;;;;;;;11.60;5.63;;;21.00;77.60;;;;;;6278971;22;20019;-68
2023/10/03 01:29:21;;;;;;;12.50;5.65;;;21.00;77.60;;;;;;6279250;22;20018;-68
2023/10/03 01:31:47;;;;;;;10.75;5.40;;;21.00;77.50;;;;;;6278891;22;20019;-68
2023/10/03 01:34:15;;;;;;;10.15;5.72;;;21.00;77.60;;;;;;6278459;22;20019;-68
2023/10/03 01:36:48;;;;;;;9.40;5.33;;;21.00;77.50;;;;;;6278986;22;20482;-68
2023/10/03 01:39:14;;;;;;;10.32;5.60;;;21.00;77.50;;;;;;6278555;22;20043;-68
2023/10/03 01:41:43;;;;;;;10.60;5.57;;;21.00;77.60;;;;;;6279502;22;20019;-68
2023/10/03 01:44:08;;;;;;;9.63;5.32;;;21.00;77.50;;;;;;6278631;22;20447;-69
2023/10/03 01:46:34;;;;;;;10.82;4.90;;;21.00;77.50;;;;;;6304136;22;20021;-68
2023/10/03 01:49:00;;;;;;;10.70;5.60;;;21.00;77.50;;;;;;6278958;22;20374;-68
2023/10/03 01:51:26;;;;;;;10.38;5.18;;;20.90;77.50;;;;;;6278543;22;20033;-68
2023/10/03 01:53:55;;;;;;;10.02;4.75;;;21.00;77.50;;;;;;6278414;22;20022;-68
2023/10/03 01:56:21;;;;;;;11.23;5.60;;;21.00;77.50;;;;;;6278596;22;20381;-68
2023/10/03 01:58:47;;;;;;;10.18;5.18;;;21.00;77.50;;;;;;6279022;22;20110;-68
2023/10/03 02:01:13;;;;;;;9.45;5.15;;;21.00;77.50;;;;;;6272652;22;20016;-68
2023/10/03 02:03:39;;;;;;;9.88;5.10;;;21.00;78.10;;;;;;6273503;22;20019;-68
2023/10/03 02:06:07;;;;;;;12.32;5.82;;;21.00;77.50;;;;;;6275532;22;20019;-68
2023/10/03 02:08:33;;;;;;;12.27;5.97;;;21.00;77.50;;;;;;6273532;22;20015;-68
2023/10/03 02:10:59;;;;;;;11.65;5.55;;;20.90;77.40;;;;;;6275845;22;20015;-68
2023/10/03 02:13:25;;;;;;;10.20;5.57;;;20.90;77.40;;;;;;6273070;22;20016;-69
2023/10/03 02:15:52;;;;;;;11.60;5.80;;;20.90;77.40;;;;;;6272797;22;20081;-68
2023/10/03 02:18:19;;;;;;;10.82;5.45;;;20.90;77.30;;;;;;6273614;22;20393;-68
2023/10/03 02:20:51;;;;;;;10.30;4.95;;;20.90;77.30;;;;;;6274215;22;20046;-68
2023/10/03 02:23:19;;;;;;;9.93;5.30;;;20.90;77.30;;;;;;6273074;22;20436;-68
2023/10/03 02:25:50;;;;;;;10.40;5.47;;;20.90;77.30;;;;;;6274233;22;20465;-68
2023/10/03 02:28:16;;;;;;;11.48;5.47;;;20.90;77.40;;;;;;6273142;22;20016;-68
2023/10/03 02:30:47;;;;;;;10.80;5.65;;;20.90;77.30;;;;;;6274282;22;20016;-68
2023/10/03 02:33:13;;;;;;;9.15;4.95;;;20.90;77.30;;;;;;6275361;22;20065;-68
2023/10/03 02:35:43;;;;;;;10.77;5.22;;;20.90;77.30;;;;;;6273302;22;20110;-68
2023/10/03 02:38:11;;;;;;;11.60;5.72;;;20.90;77.30;;;;;;6272911;22;20015;-68
2023/10/03 02:40:40;;;;;;;;;;;20.90;77.30;;;;;;6274532;22;20008;-67
2023/10/03 02:43:06;;;;;;;11.70;6.25;;;20.90;77.20;;;;;;6272874;22;19919;-68
2023/10/03 02:45:31;;;;;;;10.13;5.90;;;20.90;77.30;;;;;;6273678;22;20015;-68
2023/10/03 02:48:00;;;;;;;11.32;6.15;;;20.90;77.30;;;;;;6274405;22;20042;-68
2023/10/03 02:50:26;;;;;;;11.98;5.93;;;20.90;77.30;;;;;;6274917;22;20493;-68
2023/10/03 02:52:52;;;;;;;12.43;5.97;;;20.90;77.20;;;;;;6275785;22;20051;-68
2023/10/03 02:55:18;;;;;;;12.02;5.45;;;20.90;77.20;;;;;;6275369;22;20098;-68
2023/10/03 02:57:47;;;;;;;10.63;6.10;;;20.90;77.20;;;;;;6274413;22;20098;-68
2023/10/03 03:00:14;;;;;;;12.00;6.13;;;20.90;77.20;;;;;;6275349;22;20313;-68
2023/10/03 03:02:47;;;;;;;14.07;6.30;;;20.90;77.20;;;;;;6277931;22;20016;-68
2023/10/03 03:05:15;;;;;;;12.70;6.18;;;20.90;77.20;;;;;;6274692;22;20396;-68
2023/10/03 03:07:48;;;;;;;13.68;5.45;;;20.90;77.20;;;;;;6275190;22;20047;-68
2023/10/03 03:10:21;;;;;;;10.02;5.32;;;20.90;77.20;;;;;;6275297;22;20015;-68
2023/10/03 03:12:47;;;;;;;11.40;5.85;;;20.90;77.20;;;;;;6275321;22;20095;-68
2023/10/03 03:15:22;;;;;;;10.32;5.38;;;20.90;77.20;;;;;;6276928;22;20020;-69
2023/10/03 03:17:48;;;;;;;11.68;6.43;;;20.90;77.20;;;;;;6275075;22;20122;-68
2023/10/03 03:20:18;;;;;;;10.20;5.50;;;20.80;77.20;;;;;;6275302;22;20102;-69
2023/10/03 03:22:47;;;;;;;11.10;5.53;;;20.90;77.20;;;;;;6275501;22;20030;-68
2023/10/03 03:25:19;;;;;;;10.82;5.10;;;20.90;77.10;;;;;;6274510;22;20019;-68
2023/10/03 03:27:45;;;;;;;11.93;6.15;;;20.90;77.10;;;;;;6275770;22;20095;-68
2023/10/03 03:33:09;;;;;;;11.75;5.93;;;20.80;77.10;;;;;;6223495;22;20020;-68
2023/10/03 03:35:38;;;;;;;12.48;5.80;;;20.90;77.10;;;;;;6277242;22;20026;-68
2023/10/03 03:38:05;;;;;;;11.98;6.13;;;20.90;77.10;;;;;;6275528;22;20436;-68
2023/10/03 03:40:34;;;;;;;10.67;5.50;;;20.90;77.10;;;;;;6274452;22;20086;-68
2023/10/03 03:43:00;;;;;;;12.85;5.25;;;20.80;77.00;;;;;;6275238;22;20023;-68
2023/10/03 03:45:26;;;;;;;11.30;5.70;;;20.90;77.10;;;;;;6275099;22;20019;-68
2023/10/03 03:47:55;;;;;;;10.85;5.70;;;20.80;77.00;;;;;;6274513;22;20022;-68
2023/10/03 03:50:24;;;;;;;11.45;5.50;;;20.80;77.00;;;;;;6274946;22;20019;-68
2023/10/03 03:52:49;;;;;;;12.32;5.93;;;20.90;77.00;;;;;;6276117;22;20020;-67
2023/10/03 03:55:17;;;;;;;11.38;5.45;;;20.80;77.00;;;;;;6274889;22;20065;-68
2023/10/03 03:57:44;;;;;;;12.13;6.10;;;20.80;77.00;;;;;;6275542;22;20024;-68
2023/10/03 04:00:13;;;;;;;10.38;5.07;;;20.80;77.00;;;;;;6273097;22;20471;-68
2023/10/03 04:02:39;;;;;;;11.57;5.50;;;20.80;77.00;;;;;;6274849;22;20027;-68
2023/10/03 04:05:07;;;;;;;11.52;5.45;;;20.80;77.60;;;;;;6274582;22;20037;-68
2023/10/03 04:07:34;;;;;;;11.10;5.43;;;20.80;77.00;;;;;;6273659;22;20503;-68
2023/10/03 04:10:00;;;;;;;12.23;6.03;;;20.80;77.00;;;;;;6273402;22;20089;-68
2023/10/03 04:12:26;;;;;;;11.05;5.55;;;20.80;77.00;;;;;;6274357;22;20019;-68
2023/10/03 04:14:52;;;;;;;11.25;5.55;;;20.80;77.00;;;;;;6273805;22;20020;-68
2023/10/03 04:17:18;;;;;;;12.25;6.10;;;20.80;77.00;;;;;;6249295;22;20077;-68
2023/10/03 04:19:45;;;;;;;14.73;6.93;;;20.80;77.00;;;;;;6275271;22;20106;-68
2023/10/03 04:22:11;;;;;;;11.32;6.03;;;20.80;77.00;;;;;;6273736;22;20019;-68
2023/10/03 04:24:36;;;;;;;11.57;6.65;;;20.80;77.00;;;;;;6274284;22;20026;-68
2023/10/03 04:27:02;;;;;;;11.60;5.80;;;20.80;77.00;;;;;;6275013;22;20026;-68
2023/10/03 04:29:28;;;;;;;13.00;6.22;;;20.80;77.00;;;;;;6273546;22;20074;-68
2023/10/03 04:31:53;;;;;;;13.00;6.47;;;20.80;76.90;;;;;;6275070;22;20023;-68
2023/10/03 04:34:20;;;;;;;13.05;6.28;;;20.80;76.90;;;;;;6276501;22;20016;-68
2023/10/03 04:36:47;;;;;;;12.82;5.70;;;20.80;76.90;;;;;;6273924;22;20045;-68
2023/10/03 04:39:13;;;;;;;13.23;6.28;;;20.80;76.90;;;;;;6249300;22;20011;-68
2023/10/03 04:41:44;;;;;;;12.82;6.45;;;20.80;76.90;;;;;;6274847;22;20142;-68
2023/10/03 04:44:14;;;;;;;12.80;6.60;;;20.80;76.90;;;;;;6273535;22;20070;-68
2023/10/03 04:46:40;;;;;;;14.02;6.68;;;20.80;76.90;;;;;;6274999;22;20317;-68
2023/10/03 04:49:07;;;;;;;14.05;6.78;;;20.70;76.80;;;;;;6273918;22;20057;-68
2023/10/03 04:51:33;;;;;;;11.75;6.35;;;20.80;76.80;;;;;;6276608;22;20020;-68
2023/10/03 04:53:58;;;;;;;12.90;6.28;;;20.80;76.80;;;;;;6275008;22;20018;-69
2023/10/03 04:56:24;;;;;;;13.15;6.38;;;20.80;76.80;;;;;;6273303;22;20085;-68
2023/10/03 04:58:49;;;;;;;14.35;6.60;;;20.80;76.80;;;;;;6274655;22;20346;-68
2023/10/03 05:01:15;;;;;;;14.52;7.25;;;20.80;76.80;;;;;;6300429;22;20604;-68
2023/10/03 05:03:41;;;;;;;14.80;7.43;;;20.80;76.70;;;;;;6278845;22;20029;-68
2023/10/03 05:06:06;;;;;;;14.85;7.13;;;20.80;76.80;;;;;;6279272;22;20022;-68
2023/10/03 05:08:32;;;;;;;12.40;6.57;;;20.80;76.80;;;;;;6279445;22;20015;-68
2023/10/03 05:11:02;;;;;;;13.38;6.20;;;20.80;76.70;;;;;;6278745;22;20496;-68
2023/10/03 05:13:28;;;;;;;12.90;6.35;;;20.80;76.70;;;;;;6279351;22;20068;-68
2023/10/03 05:15:54;;;;;;;14.55;7.68;;;20.80;76.70;;;;;;6279509;22;20019;-68
2023/10/03 05:18:20;;;;;;;13.95;6.78;;;20.80;76.70;;;;;;6278509;22;20027;-68
2023/10/03 05:20:45;;;;;;;15.20;6.85;;;20.70;76.70;;;;;;6307541;22;20450;-68
2023/10/03 05:23:14;;;;;;;14.05;6.93;;;20.70;76.70;;;;;;6279363;22;20013;-68
2023/10/03 05:25:42;;;;;;;15.20;7.40;;;20.80;76.70;;;;;;6278516;22;20015;-68
2023/10/03 05:28:10;;;;;;;15.30;7.10;;;20.70;76.60;;;;;;6278854;22;20430;-68
2023/10/03 05:30:38;;;;;;;;;;;20.70;76.60;;;;;;6279968;22;20346;-68
2023/10/03 05:33:06;;;;;;;15.23;7.22;;;20.70;76.50;;;;;;6306483;22;20338;-68
2023/10/03 05:35:32;;;;;;;15.60;6.93;;;20.70;76.60;;;;;;6279853;22;20015;-68
2023/10/03 05:37:58;;;;;;;14.50;7.22;;;20.70;76.60;;;;;;6278624;22;20019;-68
2023/10/03 05:40:23;;;;;;;17.13;6.95;;;20.70;76.60;;;;;;6278134;22;20166;-68
2023/10/03 05:42:49;;;;;;;16.85;7.45;;;20.70;77.10;;;;;;6307257;22;20057;-68
2023/10/03 05:45:18;;;;;;;15.98;7.68;;;20.70;76.50;;;;;;6304949;22;20019;-68
2023/10/03 05:47:47;;;;;;;15.38;6.93;;;20.70;76.50;;;;;;6279016;22;20030;-65
2023/10/03 05:50:17;;;;;;;15.55;7.80;;;20.80;76.60;;;;;;6279097;22;20015;-67
2023/10/03 05:52:46;;;;;;;14.88;7.15;;;20.70;76.60;;;;;;6277272;22;20019;-68
2023/10/03 05:55:11;;;;;;;19.45;7.38;;;20.70;76.60;;;;;;6279070;22;20011;-68
2023/10/03 05:57:39;;;;;;;13.35;6.93;;;20.70;76.60;;;;;;6277313;22;20054;-68
2023/10/03 06:00:08;;;;;;;14.35;6.50;;;20.70;76.60;;;;;;6305524;22;20019;-68
2023/10/03 06:02:35;;;;;;;19.17;7.38;;;20.70;76.60;;;;;;6279583;22;20073;-67
2023/10/03 06:05:00;;;;;;;18.05;7.13;;;20.70;76.70;;;;;;6279522;22;20033;-67
2023/10/03 06:07:26;;;;;;;20.58;7.55;;;20.80;76.70;;;;;;6277935;22;20019;-68
2023/10/03 06:09:55;;;;;;;18.20;8.43;;;20.80;76.70;;;;;;6306770;22;20506;-67
2023/10/03 06:12:23;;;;;;;17.92;7.22;;;20.70;76.80;;;;;;6278897;22;20026;-68
2023/10/03 06:14:49;;;;;;;;;;;20.80;77.00;;;;;;6278727;22;20019;-68
2023/10/03 06:17:17;;;;;;;16.67;7.65;;;20.80;77.00;;;;;;6306696;22;19914;-68
2023/10/03 06:19:43;;;;;;;16.65;7.93;;;20.80;76.90;;;;;;6279407;22;20022;-68
2023/10/03 06:22:08;;;;;;;19.35;7.38;;;20.80;77.00;;;;;;6277690;22;20023;-67
2023/10/03 06:24:34;;;;;;;19.10;7.07;;;20.80;77.00;;;;;;6281405;22;20102;-65
2023/10/03 06:26:59;;;;;;;17.10;6.90;;;20.80;77.00;;;;;;6308577;22;20467;-66
2023/10/03 06:29:25;;;;;;;18.48;8.13;;;20.80;77.00;;;;;;6279685;22;20094;-68
2023/10/03 06:31:51;;;;;;;17.15;7.93;;;20.80;77.00;;;;;;6281307;22;20019;-65
2023/10/03 06:34:18;;;;;;;15.70;6.97;;;20.80;77.10;;;;;;6308472;22;20015;-65
2023/10/03 06:36:44;;;;;;;16.60;7.80;;;20.80;77.10;;;;;;6280168;22;20378;-65
2023/10/03 06:39:09;;;;;;;19.45;8.00;;;20.80;77.10;;;;;;6280886;22;20019;-66
2023/10/03 06:41:35;;;;;;;17.98;7.55;;;20.80;77.10;;;;;;6280294;22;20027;-66
2023/10/03 06:44:01;;;;;;;16.00;7.53;;;20.80;77.00;;;;;;6281666;22;20018;-66
2023/10/03 06:46:27;;;;;;;17.20;6.72;;;20.80;77.00;;;;;;6280866;22;20030;-66
2023/10/03 06:48:54;;;;;;;20.73;7.45;;;20.90;77.10;;;;;;6307823;22;20015;-68
2023/10/03 06:51:19;;;;;;;18.42;7.38;;;20.80;77.10;;;;;;6280697;22;20019;-66
2023/10/03 06:53:48;;;;;;;16.08;7.35;;;20.80;77.10;;;;;;6308252;22;20242;-67
2023/10/03 06:56:15;;;;;;;16.23;6.78;;;20.90;77.10;;;;;;6279475;22;20347;-67
2023/10/03 06:58:40;;;;;;;18.05;6.97;;;20.90;77.20;;;;;;6280991;22;20019;-68
2023/10/03 07:01:08;;;;;;;14.55;6.88;;;20.80;77.10;;;;;;6275491;22;20054;-67
2023/10/03 07:03:35;;;;;;;15.05;6.28;;;20.90;77.20;;;;;;6276291;22;20462;-67
2023/10/03 07:06:01;;;;;;;19.75;6.90;;;20.90;77.20;;;;;;6277427;22;20473;-66
2023/10/03 07:08:27;;;;;;;16.42;6.47;;;20.90;77.20;;;;;;6275282;22;20015;-65
2023/10/03 07:10:53;;;;;;;18.27;6.80;;;20.90;77.10;;;;;;6276842;22;20074;-67
2023/10/03 07:13:20;;;;;;;14.52;6.05;;;20.90;77.00;;;;;;6275463;22;20091;-68
2023/10/03 07:15:45;;;;;;;16.10;5.78;;;20.90;76.90;;;;;;6277040;22;20019;-74
2023/10/03 07:18:11;;;;;;;11.20;5.20;;;20.90;76.90;;;;;;6273848;22;20407;-66
2023/10/03 07:20:38;;;;;;;15.10;5.93;;;20.90;76.90;;;;;;6275626;22;20019;-66
2023/10/03 07:23:03;;;;;;;13.82;5.90;;;20.90;76.80;;;;;;6275374;22;20020;-66
2023/10/03 07:25:32;;;;;;;14.52;5.70;;;20.90;76.80;;;;;;6274158;22;20012;-66
2023/10/03 07:27:57;;;;;;;19.92;6.00;;;20.90;76.80;;;;;;6275771;22;20103;-66
2023/10/03 07:30:23;;;;;;;15.07;5.22;;;20.90;76.70;;;;;;6276899;22;20043;-67
2023/10/03 07:32:49;;;;;;;12.82;5.85;;;20.90;76.60;;;;;;6273509;22;20034;-66
2023/10/03 07:35:17;;;;;;;13.57;5.40;;;20.90;76.60;;;;;;6275189;22;20440;-66
2023/10/03 07:37:42;;;;;;;16.83;6.35;;;20.90;76.60;;;;;;6273349;22;20030;-67
2023/10/03 07:40:09;;;;;;;14.63;6.10;;;20.90;76.60;;;;;;6274185;22;20019;-66
2023/10/03 07:42:34;;;;;;;14.27;5.53;;;20.90;76.50;;;;;;6275219;22;20022;-67
2023/10/03 07:45:00;;;;;;;12.75;5.93;;;20.90;76.40;;;;;;6273793;22;20016;-65
2023/10/03 07:47:25;;;;;;;10.93;5.32;;;20.90;76.50;;;;;;6274105;22;20024;-66
2023/10/03 07:49:51;;;;;;;12.40;5.07;;;20.90;76.50;;;;;;6274633;22;20095;-66
2023/10/03 07:52:20;;;;;;;11.45;4.93;;;20.90;76.50;;;;;;6273576;22;20444;-66
2023/10/03 07:54:49;;;;;;;12.05;5.10;;;20.90;76.50;;;;;;6274412;22;20012;-65
2023/10/03 07:57:15;;;;;;;13.05;5.38;;;20.90;76.50;;;;;;6274343;22;20031;-66
2023/10/03 07:59:43;;;;;;;13.65;5.20;;;20.90;76.50;;;;;;6277910;22;20027;-66
2023/10/03 08:02:10;;;;;;;12.13;5.18;;;20.90;76.50;;;;;;6279737;22;20110;-64
2023/10/03 08:04:37;;;;;;;11.80;5.13;;;20.90;76.50;;;;;;6280366;22;20221;-66
2023/10/03 08:07:04;;;;;;;13.55;5.45;;;20.80;76.40;;;;;;6306605;22;20431;-66
2023/10/03 08:09:31;;;;;;;12.10;4.95;;;20.80;76.40;;;;;;6280087;22;20015;-65
2023/10/03 08:11:57;;;;;;;9.80;4.75;;;20.80;76.40;;;;;;6280477;22;20058;-66
2023/10/03 08:14:23;;;;;;;13.15;5.43;;;20.80;76.50;;;;;;6278620;22;20043;-65
2023/10/03 08:16:49;;;;;;;10.40;4.90;;;20.80;76.60;;;;;;6280316;22;20023;-66
2023/10/03 08:19:21;;;;;;;12.00;4.57;;;20.80;76.60;;;;;;6280073;22;20015;-66
2023/10/03 08:21:52;;;;;;;10.52;4.55;;;20.80;76.60;;;;;;6278535;22;20077;-66
2023/10/03 08:24:24;;;;;;;11.32;4.90;;;20.90;76.70;;;;;;6279164;22;20026;-65
2023/10/03 08:26:51;;;;;;;10.60;4.80;;;20.80;76.60;;;;;;6280225;22;20084;-66
2023/10/03 08:29:21;;;;;;;10.32;4.82;;;20.80;76.70;;;;;;6278809;22;20502;-65
2023/10/03 08:31:49;;;;;;;11.57;4.55;;;20.90;76.70;;;;;;6307680;22;20023;-65
2023/10/03 08:34:19;;;;;;;11.55;4.38;;;20.90;76.70;;;;;;6306652;22;20007;-66
2023/10/03 08:36:45;;;;;;;12.00;4.50;;;20.80;76.70;;;;;;6307619;22;20026;-67
2023/10/03 08:39:14;;;;;;;10.68;4.57;;;20.90;76.80;;;;;;6279608;22;20019;-67
2023/10/03 08:41:45;;;;;;;11.50;4.40;;;20.90;76.80;;;;;;6279053;22;20058;-66
2023/10/03 08:44:12;;;;;;;9.57;4.43;;;20.80;76.70;;;;;;6279292;22;20042;-65
2023/10/03 08:46:39;;;;;;;11.18;4.93;;;20.80;76.60;;;;;;6277495;22;20082;-65
2023/10/03 08:49:07;;;;;;;9.30;4.43;;;20.80;76.60;;;;;;6275488;22;20026;-65
2023/10/03 08:51:32;;;;;;;;;;;20.80;76.70;;;;;;6227190;22;20011;-65
2023/10/03 08:54:09;;;;;;;11.07;4.00;;;20.80;76.60;;;;;;6275402;22;20072;-65
2023/10/03 08:56:35;;;;;;;10.85;4.35;;;20.80;76.70;;;;;;6279625;22;20136;-66
2023/10/03 08:59:03;;;;;;;8.85;4.60;;;20.80;76.70;;;;;;6252543;22;20090;-65
2023/10/03 09:01:33;;;;;;;9.27;3.58;;;20.80;77.30;;;;;;6278492;22;20019;-65
2023/10/03 09:04:04;;;;;;;9.57;4.15;;;20.80;76.70;;;;;;6280254;22;20074;-65
2023/10/03 09:06:37;;;;;;;8.32;3.67;;;20.80;76.70;;;;;;6280843;22;20022;-66
2023/10/03 09:09:09;;;;;;;8.70;4.30;;;20.80;76.70;;;;;;6279615;22;20058;-65
2023/10/03 09:11:38;;;;;;;10.30;3.95;;;20.80;76.70;;;;;;6279193;22;20156;-65
2023/10/03 09:14:05;;;;;;;11.70;4.18;;;20.80;76.70;;;;;;6279480;22;20015;-66
2023/10/03 09:16:30;;;;;;;8.52;3.63;;;20.90;76.80;;;;;;6278576;22;20049;-66
2023/10/03 09:18:56;;;;;;;12.55;4.07;;;20.80;76.70;;;;;;6253792;22;20068;-66
2023/10/03 09:21:27;;;;;;;10.27;3.85;;;20.90;76.70;;;;;;6279192;22;20117;-66
2023/10/03 09:24:11;;;;;;;7.10;3.08;;;20.80;76.60;;;;;;6278653;22;20015;-66
2023/10/03 09:26:45;;;;;;;8.63;3.30;;;20.80;76.60;;;;;;6279734;22;20023;-65
2023/10/03 09:29:32;;;;;;;7.75;3.10;;;20.90;76.60;;;;;;6306300;22;20339;-66
2023/10/03 09:31:58;;;;;;;7.60;3.25;;;20.90;76.60;;;;;;6278615;22;20325;-65
2023/10/03 09:34:30;;;;;;;6.97;3.38;;;20.80;76.50;;;;;;6278359;22;20023;-65
2023/10/03 09:37:02;;;;;;;8.98;3.58;;;20.80;76.60;;;;;;6279379;22;20020;-65
2023/10/03 09:39:48;;;;;;;7.90;3.13;;;20.80;76.70;;;;;;6305846;22;20023;-65
2023/10/03 09:42:16;;;;;;;9.43;3.92;;;20.80;76.70;;;;;;6278780;22;20027;-67
2023/10/03 09:44:48;;;;;;;8.65;3.40;;;20.90;76.70;;;;;;6278413;22;20072;-66
2023/10/03 09:47:17;;;;;;;7.32;3.08;;;20.90;76.70;;;;;;6278722;22;20018;-67
2023/10/03 09:49:43;;;;;;;6.18;3.22;;;20.90;76.70;;;;;;6278848;22;20026;-66
2023/10/03 09:52:16;;;;;;;9.88;3.30;;;20.90;76.70;;;;;;6252480;22;20019;-66
2023/10/03 09:54:42;;;;;;;6.97;2.97;;;20.90;76.70;;;;;;6279240;22;20038;-65
2023/10/03 09:57:16;;;;;;;7.95;3.00;;;20.90;76.60;;;;;;6253051;22;20432;-65
2023/10/03 09:59:46;;;;;;;7.40;3.03;;;20.90;76.60;;;;;;6233116;22;20026;-66
2023/10/03 10:02:35;;;;;;;8.32;3.15;;;20.90;76.60;;;;;;6280609;22;20023;-67
2023/10/03 10:05:07;;;;;;;9.27;3.03;;;20.90;76.60;;;;;;6237219;22;20497;-67
2023/10/03 10:07:50;;;;;;;8.18;2.92;;;20.90;76.40;;;;;;6278013;22;20023;-67
2023/10/03 10:10:19;;;;;;;7.97;2.70;;;20.90;76.40;;;;;;6232289;22;20069;-66
2023/10/03 10:13:13;;;;;;;6.53;3.05;;;20.90;76.50;;;;;;6279216;22;20828;-67
2023/10/03 10:16:07;;;;;;;10.27;3.08;;;20.90;76.60;;;;;;6280851;22;20090;-67
2023/10/03 10:18:45;;;;;;;7.07;2.83;;;21.00;76.90;;;;;;6266339;22;20446;-69
2023/10/03 10:21:20;;;;;;;9.80;3.03;;;21.00;76.90;;;;;;6279740;22;20018;-71
2023/10/03 10:24:40;;;;;;;7.40;2.80;;;21.00;77.00;;;;;;6280749;22;20031;-70
2023/10/03 10:26:59;;;;;;;5.95;2.40;;;21.00;77.20;;;;;;6279539;22;20029;-70
2023/10/03 10:29:25;;;;;;;;;;;21.00;77.20;;;;;;6279360;22;20086;-71
2023/10/03 10:31:57;;;;;;;9.15;2.78;;;21.00;77.30;;;;;;6280565;22;20318;-71
2023/10/03 10:34:46;;;;;;;5.93;2.35;;;20.90;77.20;;;;;;6279645;22;20102;-71
2023/10/03 10:37:15;;;;;;;6.85;2.75;;;21.00;77.30;;;;;;6280396;22;20023;-70
2023/10/03 10:39:56;;;;;;;5.38;2.60;;;21.00;77.40;;;;;;6256010;22;20015;-69
2023/10/03 10:42:25;;;;;;;6.65;2.75;;;21.00;77.40;;;;;;6279409;22;20038;-72
2023/10/03 10:45:15;;;;;;;6.80;2.50;;;21.00;77.40;;;;;;6280598;22;20042;-71
2023/10/03 10:47:45;;;;;;;6.85;2.95;;;21.00;77.30;;;;;;6279173;22;20094;-71
2023/10/03 10:50:11;;;;;;;5.78;2.42;;;21.00;77.30;;;;;;6280497;22;20023;-67
2023/10/03 10:52:56;;;;;;;6.68;2.30;;;21.00;77.30;;;;;;6279295;22;20019;-67
2023/10/03 10:55:25;;;;;;;6.70;2.58;;;21.00;77.20;;;;;;6279879;22;20022;-68
2023/10/03 10:58:12;;;;;;;5.15;2.25;;;21.00;77.10;;;;;;6281128;22;20443;-67
2023/10/03 11:00:38;;;;;;;6.18;1.90;;;21.00;77.10;;;;;;6279993;22;20081;-67
2023/10/03 11:03:05;;;;;;;5.45;2.20;;;21.00;77.00;;;;;;6253468;22;20431;-67
2023/10/03 11:05:48;;;;;;;4.75;2.08;;;21.00;77.00;;;;;;6278500;22;20466;-67
2023/10/03 11:08:14;;;;;;;7.40;3.00;;;21.10;76.90;;;;;;6280159;22;20351;-67
2023/10/03 11:10:54;;;;;;;5.80;2.03;;;21.10;76.90;;;;;;6279951;22;20454;-66
2023/10/03 11:13:20;;;;;;;6.40;2.13;;;21.10;76.70;;;;;;6280179;22;20312;-69
2023/10/03 11:15:49;;;;;;;4.57;1.85;;;21.10;76.80;;;;;;6276224;22;20069;-68
2023/10/03 11:18:16;;;;;;;5.82;1.88;;;21.10;76.70;;;;;;6279076;22;20015;-68
2023/10/03 11:20:42;;;;;;;5.20;1.73;;;21.10;76.70;;;;;;6280373;22;20073;-68
2023/10/03 11:23:18;;;;;;;5.85;2.22;;;21.00;76.60;;;;;;6253163;22;20008;-68
2023/10/03 11:25:56;;;;;;;5.85;1.77;;;21.10;76.60;;;;;;6280200;22;20435;-68
2023/10/03 11:28:29;;;;;;;5.90;2.25;;;21.10;76.60;;;;;;6279336;22;20051;-68
2023/10/03 11:31:05;;;;;;;7.28;1.80;;;21.10;76.60;;;;;;6279323;22;20435;-68
2023/10/03 11:33:44;;;;;;;4.82;1.98;;;21.10;76.60;;;;;;6279361;22;20015;-67
2023/10/03 11:36:11;;;;;;;6.50;2.25;;;21.10;76.50;;;;;;6279317;22;20043;-68
2023/10/03 11:38:46;;;;;;;4.72;1.45;;;21.20;76.50;;;;;;6253768;22;20022;-68
2023/10/03 11:41:11;;;;;;;4.78;1.90;;;21.20;76.40;;;;;;6279896;22;20025;-69
2023/10/03 11:43:46;;;;;;;5.70;1.60;;;21.20;76.40;;;;;;6279107;22;20051;-68
2023/10/03 11:46:12;;;;;;;4.68;1.67;;;21.20;76.30;;;;;;6278672;22;20348;-67
2023/10/03 11:48:37;;;;;;;4.95;1.92;;;21.20;76.40;;;;;;6307361;22;20027;-67
2023/10/03 11:51:04;;;;;;;4.65;1.60;;;21.20;76.30;;;;;;6306249;22;20012;-68
2023/10/03 11:53:31;;;;;;;4.32;1.65;;;21.20;76.20;;;;;;6279877;22;20088;-69
2023/10/03 11:55:56;;;;;;;5.80;1.92;;;21.20;76.20;;;;;;6278739;22;20015;-69
2023/10/03 11:58:22;;;;;;;4.72;1.48;;;21.20;76.10;;;;;;6278946;22;20071;-69
2023/10/03 12:00:49;;;;;;;4.65;1.70;;;21.10;76.10;;;;;;6279817;22;20102;-69
2023/10/03 12:03:15;;;;;;;4.47;1.70;;;21.20;76.10;;;;;;6279054;22;20023;-69
2023/10/03 12:05:42;;;;;;;3.97;1.30;;;21.10;76.10;;;;;;6276798;22;20029;-68
2023/10/03 12:08:08;;;;;;;3.92;1.65;;;21.10;76.00;;;;;;6306359;22;20455;-69
2023/10/03 12:10:36;;;;;;;6.43;1.80;;;21.20;76.10;;;;;;6279907;22;20022;-69
2023/10/03 12:13:02;;;;;;;5.93;1.17;;;21.10;76.00;;;;;;6276238;22;20450;-69
2023/10/03 12:15:29;;;;;;;5.43;1.40;;;21.10;76.00;;;;;;6279496;22;20457;-67
2023/10/03 12:17:54;;;;;;;4.10;1.70;;;21.10;76.10;;;;;;6279475;22;20026;-65
2023/10/03 12:20:20;;;;;;;6.78;2.10;;;21.10;76.10;;;;;;6305546;22;20019;-67
2023/10/03 12:22:50;;;;;;;6.38;1.63;;;21.10;76.10;;;;;;6279221;22;20029;-65
2023/10/03 12:25:17;;;;;;;5.15;1.50;;;21.10;76.20;;;;;;6278958;22;20102;-66
2023/10/03 12:27:43;;;;;;;4.20;1.60;;;21.00;76.10;;;;;;6253267;22;20023;-65
2023/10/03 12:30:11;;;;;;;5.75;1.60;;;21.10;76.10;;;;;;6279367;22;20438;-66
2023/10/03 12:32:41;;;;;;;5.85;1.45;;;21.00;76.00;;;;;;6279754;22;20062;-66
2023/10/03 12:35:07;;;;;;;4.60;1.40;;;21.00;76.00;;;;;;6279047;22;20019;-66
2023/10/03 12:37:34;;;;;;;5.68;1.40;;;21.00;76.00;;;;;;6279501;22;20046;-68
2023/10/03 12:40:08;;;;;;;4.53;1.35;;;21.00;75.90;;;;;;6279489;22;20015;-66
2023/10/03 12:42:35;;;;;;;4.93;1.63;;;21.10;75.90;;;;;;6279108;22;20101;-66
2023/10/03 12:45:01;;;;;;;4.68;1.45;;;21.00;75.90;;;;;;6279472;22;20090;-66
2023/10/03 12:47:30;;;;;;;4.88;1.30;;;21.00;75.90;;;;;;6278335;22;20088;-67
2023/10/03 12:49:57;;;;;;;2.90;1.40;;;21.00;76.00;;;;;;6279638;22;20022;-66